sensor_id;sensor_type;location;lat;lon;timestamp;P1;durP1;ratioP1;P2;durP2;ratioP2
70744;SDS011;59284;31.390;34.904;2023-04-25T00:00:24;9.40;;;1.50;;
70744;SDS011;59284;31.390;34.904;2023-04-25T00:02:50;6.97;;;1.60;;
70744;SDS011;59284;31.390;34.904;2023-04-25T00:05:16;6.60;;;1.60;;
70744;SDS011;59284;31.390;34.904;2023-04-25T00:07:42;7.82;;;1.50;;
70744;SDS011;59284;31.390;34.904;2023-04-25T00:10:08;10.38;;;1.20;;
70744;SDS011;59284;31.390;34.904;2023-04-25T00:12:36;7.25;;;1.40;;
70744;SDS011;59284;31.390;34.904;2023-04-25T00:15:01;4.27;;;0.93;;
70744;SDS011;59284;31.390;34.904;2023-04-25T00:17:28;8.05;;;1.52;;
70744;SDS011;59284;31.390;34.904;2023-04-25T00:19:53;6.27;;;1.30;;
70744;SDS011;59284;31.390;34.904;2023-04-25T00:22:19;6.97;;;1.10;;
70744;SDS011;59284;31.390;34.904;2023-04-25T00:24:45;9.35;;;1.67;;
70744;SDS011;59284;31.390;34.904;2023-04-25T00:27:11;4.67;;;1.10;;
70744;SDS011;59284;31.390;34.904;2023-04-25T00:29:36;6.90;;;1.20;;
70744;SDS011;59284;31.390;34.904;2023-04-25T00:32:02;5.97;;;1.10;;
70744;SDS011;59284;31.390;34.904;2023-04-25T00:34:28;9.67;;;1.63;;
70744;SDS011;59284;31.390;34.904;2023-04-25T00:36:53;9.57;;;1.40;;
70744;SDS011;59284;31.390;34.904;2023-04-25T00:39:19;6.95;;;1.30;;
70744;SDS011;59284;31.390;34.904;2023-04-25T00:41:45;8.67;;;1.70;;
70744;SDS011;59284;31.390;34.904;2023-04-25T00:44:10;4.53;;;1.37;;
70744;SDS011;59284;31.390;34.904;2023-04-25T00:46:37;9.52;;;1.85;;
70744;SDS011;59284;31.390;34.904;2023-04-25T00:49:03;11.38;;;1.30;;
70744;SDS011;59284;31.390;34.904;2023-04-25T00:51:30;6.68;;;1.30;;
70744;SDS011;59284;31.390;34.904;2023-04-25T00:53:56;8.53;;;1.10;;
70744;SDS011;59284;31.390;34.904;2023-04-25T00:56:22;7.20;;;1.40;;
70744;SDS011;59284;31.390;34.904;2023-04-25T00:58:48;9.83;;;1.70;;
70744;SDS011;59284;31.390;34.904;2023-04-25T01:01:15;7.28;;;1.35;;
70744;SDS011;59284;31.390;34.904;2023-04-25T01:03:41;6.93;;;1.35;;
70744;SDS011;59284;31.390;34.904;2023-04-25T01:06:12;9.50;;;1.70;;
70744;SDS011;59284;31.390;34.904;2023-04-25T01:08:38;5.10;;;1.30;;
70744;SDS011;59284;31.390;34.904;2023-04-25T01:11:04;6.20;;;1.40;;
70744;SDS011;59284;31.390;34.904;2023-04-25T01:13:30;9.05;;;1.40;;
70744;SDS011;59284;31.390;34.904;2023-04-25T01:15:57;7.53;;;1.25;;
70744;SDS011;59284;31.390;34.904;2023-04-25T01:18:23;5.88;;;1.40;;
70744;SDS011;59284;31.390;34.904;2023-04-25T01:20:53;6.83;;;1.40;;
70744;SDS011;59284;31.390;34.904;2023-04-25T01:23:22;9.05;;;1.42;;
70744;SDS011;59284;31.390;34.904;2023-04-25T01:25:49;5.43;;;1.10;;
70744;SDS011;59284;31.390;34.904;2023-04-25T01:28:15;7.05;;;1.73;;
70744;SDS011;59284;31.390;34.904;2023-04-25T01:30:41;8.75;;;1.75;;
70744;SDS011;59284;31.390;34.904;2023-04-25T01:33:07;6.17;;;1.37;;
70744;SDS011;59284;31.390;34.904;2023-04-25T01:35:33;6.45;;;1.70;;
70744;SDS011;59284;31.390;34.904;2023-04-25T01:37:59;7.88;;;2.05;;
70744;SDS011;59284;31.390;34.904;2023-04-25T01:40:25;4.43;;;1.40;;
70744;SDS011;59284;31.390;34.904;2023-04-25T01:42:51;7.60;;;1.40;;
70744;SDS011;59284;31.390;34.904;2023-04-25T01:45:17;6.95;;;1.60;;
70744;SDS011;59284;31.390;34.904;2023-04-25T01:47:43;6.70;;;1.87;;
70744;SDS011;59284;31.390;34.904;2023-04-25T01:50:13;4.60;;;1.50;;
70744;SDS011;59284;31.390;34.904;2023-04-25T01:52:39;8.15;;;1.65;;
70744;SDS011;59284;31.390;34.904;2023-04-25T01:55:05;5.63;;;1.63;;
70744;SDS011;59284;31.390;34.904;2023-04-25T01:57:31;10.32;;;1.52;;
70744;SDS011;59284;31.390;34.904;2023-04-25T01:59:58;8.73;;;1.10;;
70744;SDS011;59284;31.390;34.904;2023-04-25T02:02:25;7.67;;;1.43;;
70744;SDS011;59284;31.390;34.904;2023-04-25T02:04:51;5.55;;;1.25;;
70744;SDS011;59284;31.390;34.904;2023-04-25T02:07:17;4.60;;;1.20;;
70744;SDS011;59284;31.390;34.904;2023-04-25T02:09:42;6.03;;;1.57;;
70744;SDS011;59284;31.390;34.904;2023-04-25T02:12:09;8.32;;;1.73;;
70744;SDS011;59284;31.390;34.904;2023-04-25T02:14:35;3.07;;;1.00;;
70744;SDS011;59284;31.390;34.904;2023-04-25T02:17:01;7.70;;;1.40;;
70744;SDS011;59284;31.390;34.904;2023-04-25T02:19:26;5.97;;;1.60;;
70744;SDS011;59284;31.390;34.904;2023-04-25T02:21:52;4.72;;;1.10;;
70744;SDS011;59284;31.390;34.904;2023-04-25T02:24:17;5.57;;;1.23;;
70744;SDS011;59284;31.390;34.904;2023-04-25T02:26:43;6.03;;;1.10;;
70744;SDS011;59284;31.390;34.904;2023-04-25T02:29:09;7.87;;;1.40;;
70744;SDS011;59284;31.390;34.904;2023-04-25T02:31:35;7.45;;;1.17;;
70744;SDS011;59284;31.390;34.904;2023-04-25T02:34:01;11.13;;;1.55;;
70744;SDS011;59284;31.390;34.904;2023-04-25T02:36:26;8.67;;;1.40;;
70744;SDS011;59284;31.390;34.904;2023-04-25T02:38:52;5.22;;;1.20;;
70744;SDS011;59284;31.390;34.904;2023-04-25T02:41:18;7.90;;;1.33;;
70744;SDS011;59284;31.390;34.904;2023-04-25T02:43:44;5.68;;;1.02;;
70744;SDS011;59284;31.390;34.904;2023-04-25T02:46:09;5.50;;;1.50;;
70744;SDS011;59284;31.390;34.904;2023-04-25T02:48:35;11.20;;;1.20;;
70744;SDS011;59284;31.390;34.904;2023-04-25T02:51:00;5.10;;;1.50;;
70744;SDS011;59284;31.390;34.904;2023-04-25T02:53:26;5.97;;;1.20;;
70744;SDS011;59284;31.390;34.904;2023-04-25T02:55:52;6.30;;;1.67;;
70744;SDS011;59284;31.390;34.904;2023-04-25T02:58:18;7.38;;;1.75;;
70744;SDS011;59284;31.390;34.904;2023-04-25T03:00:43;7.47;;;1.40;;
70744;SDS011;59284;31.390;34.904;2023-04-25T03:03:09;10.05;;;2.28;;
70744;SDS011;59284;31.390;34.904;2023-04-25T03:05:35;2.40;;;0.95;;
70744;SDS011;59284;31.390;34.904;2023-04-25T03:08:01;8.13;;;1.63;;
70744;SDS011;59284;31.390;34.904;2023-04-25T03:10:26;6.82;;;1.15;;
70744;SDS011;59284;31.390;34.904;2023-04-25T03:12:52;6.50;;;1.40;;
70744;SDS011;59284;31.390;34.904;2023-04-25T03:15:18;7.70;;;1.20;;
70744;SDS011;59284;31.390;34.904;2023-04-25T03:17:43;10.68;;;1.30;;
70744;SDS011;59284;31.390;34.904;2023-04-25T03:20:09;8.73;;;1.37;;
70744;SDS011;59284;31.390;34.904;2023-04-25T03:22:35;9.40;;;1.35;;
70744;SDS011;59284;31.390;34.904;2023-04-25T03:25:01;7.18;;;1.38;;
70744;SDS011;59284;31.390;34.904;2023-04-25T03:27:27;10.97;;;1.30;;
70744;SDS011;59284;31.390;34.904;2023-04-25T03:29:52;5.78;;;1.10;;
70744;SDS011;59284;31.390;34.904;2023-04-25T03:32:18;7.23;;;1.30;;
70744;SDS011;59284;31.390;34.904;2023-04-25T03:34:43;11.63;;;1.40;;
70744;SDS011;59284;31.390;34.904;2023-04-25T03:37:09;11.85;;;1.60;;
70744;SDS011;59284;31.390;34.904;2023-04-25T03:39:34;5.80;;;1.20;;
70744;SDS011;59284;31.390;34.904;2023-04-25T03:42:00;8.27;;;0.90;;
70744;SDS011;59284;31.390;34.904;2023-04-25T03:44:27;3.28;;;1.00;;
70744;SDS011;59284;31.390;34.904;2023-04-25T03:46:53;6.87;;;1.07;;
70744;SDS011;59284;31.390;34.904;2023-04-25T03:49:19;6.90;;;1.10;;
70744;SDS011;59284;31.390;34.904;2023-04-25T03:51:44;5.80;;;1.30;;
70744;SDS011;59284;31.390;34.904;2023-04-25T03:54:10;7.03;;;1.30;;
70744;SDS011;59284;31.390;34.904;2023-04-25T03:56:36;5.03;;;1.10;;
70744;SDS011;59284;31.390;34.904;2023-04-25T03:59:01;4.03;;;1.20;;
70744;SDS011;59284;31.390;34.904;2023-04-25T04:01:27;5.70;;;1.42;;
70744;SDS011;59284;31.390;34.904;2023-04-25T04:03:52;6.50;;;1.10;;
70744;SDS011;59284;31.390;34.904;2023-04-25T04:06:18;6.05;;;1.25;;
70744;SDS011;59284;31.390;34.904;2023-04-25T04:08:45;8.20;;;1.60;;
70744;SDS011;59284;31.390;34.904;2023-04-25T04:11:11;4.38;;;1.00;;
70744;SDS011;59284;31.390;34.904;2023-04-25T04:13:37;5.65;;;1.30;;
70744;SDS011;59284;31.390;34.904;2023-04-25T04:16:03;4.90;;;1.90;;
70744;SDS011;59284;31.390;34.904;2023-04-25T04:18:29;5.78;;;1.65;;
70744;SDS011;59284;31.390;34.904;2023-04-25T04:20:55;3.67;;;1.00;;
70744;SDS011;59284;31.390;34.904;2023-04-25T04:23:23;5.82;;;1.30;;
70744;SDS011;59284;31.390;34.904;2023-04-25T04:25:48;6.70;;;1.27;;
70744;SDS011;59284;31.390;34.904;2023-04-25T04:28:14;4.40;;;1.40;;
70744;SDS011;59284;31.390;34.904;2023-04-25T04:30:41;5.07;;;1.67;;
70744;SDS011;59284;31.390;34.904;2023-04-25T04:33:08;3.63;;;1.38;;
70744;SDS011;59284;31.390;34.904;2023-04-25T04:35:34;8.45;;;1.50;;
70744;SDS011;59284;31.390;34.904;2023-04-25T04:37:59;7.97;;;1.20;;
70744;SDS011;59284;31.390;34.904;2023-04-25T04:40:25;5.30;;;1.50;;
70744;SDS011;59284;31.390;34.904;2023-04-25T04:42:51;3.80;;;1.27;;
70744;SDS011;59284;31.390;34.904;2023-04-25T04:45:18;4.33;;;1.40;;
70744;SDS011;59284;31.390;34.904;2023-04-25T04:47:43;5.22;;;1.35;;
70744;SDS011;59284;31.390;34.904;2023-04-25T04:50:16;7.30;;;1.73;;
70744;SDS011;59284;31.390;34.904;2023-04-25T04:52:51;8.37;;;1.83;;
70744;SDS011;59284;31.390;34.904;2023-04-25T04:55:17;5.88;;;2.00;;
70744;SDS011;59284;31.390;34.904;2023-04-25T04:57:42;4.63;;;1.55;;
70744;SDS011;59284;31.390;34.904;2023-04-25T05:00:08;4.60;;;1.70;;
70744;SDS011;59284;31.390;34.904;2023-04-25T05:02:36;8.52;;;1.50;;
70744;SDS011;59284;31.390;34.904;2023-04-25T05:05:03;3.70;;;1.33;;
70744;SDS011;59284;31.390;34.904;2023-04-25T05:07:30;3.33;;;1.40;;
70744;SDS011;59284;31.390;34.904;2023-04-25T05:09:55;4.27;;;1.07;;
70744;SDS011;59284;31.390;34.904;2023-04-25T05:12:21;2.47;;;0.87;;
70744;SDS011;59284;31.390;34.904;2023-04-25T05:14:46;3.33;;;1.00;;
70744;SDS011;59284;31.390;34.904;2023-04-25T05:17:12;2.17;;;0.80;;
70744;SDS011;59284;31.390;34.904;2023-04-25T05:19:38;3.10;;;0.90;;
70744;SDS011;59284;31.390;34.904;2023-04-25T05:22:04;3.37;;;1.47;;
70744;SDS011;59284;31.390;34.904;2023-04-25T05:24:30;4.35;;;1.13;;
70744;SDS011;59284;31.390;34.904;2023-04-25T05:26:56;3.27;;;1.10;;
70744;SDS011;59284;31.390;34.904;2023-04-25T05:29:21;2.17;;;0.80;;
70744;SDS011;59284;31.390;34.904;2023-04-25T05:31:47;3.15;;;1.00;;
70744;SDS011;59284;31.390;34.904;2023-04-25T05:34:13;4.87;;;1.20;;
70744;SDS011;59284;31.390;34.904;2023-04-25T05:36:39;5.60;;;1.30;;
70744;SDS011;59284;31.390;34.904;2023-04-25T05:39:04;3.72;;;1.42;;
70744;SDS011;59284;31.390;34.904;2023-04-25T05:41:31;6.83;;;2.10;;
70744;SDS011;59284;31.390;34.904;2023-04-25T05:43:56;5.80;;;1.08;;
70744;SDS011;59284;31.390;34.904;2023-04-25T05:46:22;8.07;;;1.50;;
70744;SDS011;59284;31.390;34.904;2023-04-25T05:48:48;4.80;;;1.65;;
70744;SDS011;59284;31.390;34.904;2023-04-25T05:51:13;5.03;;;1.47;;
70744;SDS011;59284;31.390;34.904;2023-04-25T05:53:39;6.27;;;1.73;;
70744;SDS011;59284;31.390;34.904;2023-04-25T05:56:04;6.43;;;1.55;;
70744;SDS011;59284;31.390;34.904;2023-04-25T05:58:30;7.37;;;1.87;;
70744;SDS011;59284;31.390;34.904;2023-04-25T06:00:56;9.18;;;1.83;;
70744;SDS011;59284;31.390;34.904;2023-04-25T06:03:21;4.77;;;1.60;;
70744;SDS011;59284;31.390;34.904;2023-04-25T06:05:47;7.47;;;1.55;;
70744;SDS011;59284;31.390;34.904;2023-04-25T06:08:13;6.33;;;1.60;;
70744;SDS011;59284;31.390;34.904;2023-04-25T06:10:38;7.22;;;1.52;;
70744;SDS011;59284;31.390;34.904;2023-04-25T06:13:04;6.87;;;1.67;;
70744;SDS011;59284;31.390;34.904;2023-04-25T06:15:30;6.35;;;1.60;;
70744;SDS011;59284;31.390;34.904;2023-04-25T06:17:57;5.13;;;1.52;;
70744;SDS011;59284;31.390;34.904;2023-04-25T06:20:23;6.95;;;1.30;;
70744;SDS011;59284;31.390;34.904;2023-04-25T06:22:49;5.77;;;1.00;;
70744;SDS011;59284;31.390;34.904;2023-04-25T06:25:16;8.43;;;1.83;;
70744;SDS011;59284;31.390;34.904;2023-04-25T06:27:42;5.85;;;1.52;;
70744;SDS011;59284;31.390;34.904;2023-04-25T06:30:08;5.93;;;1.53;;
70744;SDS011;59284;31.390;34.904;2023-04-25T06:32:34;8.80;;;1.60;;
70744;SDS011;59284;31.390;34.904;2023-04-25T06:35:00;4.45;;;1.50;;
70744;SDS011;59284;31.390;34.904;2023-04-25T06:37:26;9.20;;;1.70;;
70744;SDS011;59284;31.390;34.904;2023-04-25T06:39:51;3.53;;;1.00;;
70744;SDS011;59284;31.390;34.904;2023-04-25T06:42:17;5.47;;;1.57;;
70744;SDS011;59284;31.390;34.904;2023-04-25T06:44:43;10.20;;;1.60;;
70744;SDS011;59284;31.390;34.904;2023-04-25T06:47:08;8.00;;;1.67;;
70744;SDS011;59284;31.390;34.904;2023-04-25T06:49:34;4.95;;;1.48;;
70744;SDS011;59284;31.390;34.904;2023-04-25T06:51:59;6.47;;;1.60;;
70744;SDS011;59284;31.390;34.904;2023-04-25T06:54:25;5.63;;;1.50;;
70744;SDS011;59284;31.390;34.904;2023-04-25T06:56:53;6.37;;;1.80;;
70744;SDS011;59284;31.390;34.904;2023-04-25T06:59:19;7.25;;;1.70;;
70744;SDS011;59284;31.390;34.904;2023-04-25T07:01:45;4.40;;;1.40;;
70744;SDS011;59284;31.390;34.904;2023-04-25T07:04:10;5.32;;;1.58;;
70744;SDS011;59284;31.390;34.904;2023-04-25T07:06:36;6.53;;;1.80;;
70744;SDS011;59284;31.390;34.904;2023-04-25T07:09:07;2.70;;;1.00;;
70744;SDS011;59284;31.390;34.904;2023-04-25T07:11:35;5.20;;;1.80;;
70744;SDS011;59284;31.390;34.904;2023-04-25T07:14:01;3.95;;;1.30;;
70744;SDS011;59284;31.390;34.904;2023-04-25T07:16:27;3.10;;;1.17;;
70744;SDS011;59284;31.390;34.904;2023-04-25T07:18:53;8.33;;;2.03;;
70744;SDS011;59284;31.390;34.904;2023-04-25T07:21:18;6.20;;;1.73;;
70744;SDS011;59284;31.390;34.904;2023-04-25T07:23:44;7.13;;;1.67;;
70744;SDS011;59284;31.390;34.904;2023-04-25T07:26:10;5.33;;;1.30;;
70744;SDS011;59284;31.390;34.904;2023-04-25T07:28:35;6.97;;;1.80;;
70744;SDS011;59284;31.390;34.904;2023-04-25T07:31:01;5.20;;;1.50;;
70744;SDS011;59284;31.390;34.904;2023-04-25T07:33:27;10.15;;;1.77;;
70744;SDS011;59284;31.390;34.904;2023-04-25T07:35:53;7.07;;;2.33;;
70744;SDS011;59284;31.390;34.904;2023-04-25T07:38:19;7.95;;;1.60;;
70744;SDS011;59284;31.390;34.904;2023-04-25T07:40:44;8.30;;;1.80;;
70744;SDS011;59284;31.390;34.904;2023-04-25T07:43:10;7.65;;;1.50;;
70744;SDS011;59284;31.390;34.904;2023-04-25T07:45:39;2.27;;;0.80;;
70744;SDS011;59284;31.390;34.904;2023-04-25T07:48:05;8.15;;;1.40;;
70744;SDS011;59284;31.390;34.904;2023-04-25T07:50:30;4.97;;;1.17;;
70744;SDS011;59284;31.390;34.904;2023-04-25T07:52:56;6.15;;;1.23;;
70744;SDS011;59284;31.390;34.904;2023-04-25T07:55:22;6.67;;;1.60;;
70744;SDS011;59284;31.390;34.904;2023-04-25T07:57:47;5.35;;;1.60;;
70744;SDS011;59284;31.390;34.904;2023-04-25T08:00:13;5.00;;;1.40;;
70744;SDS011;59284;31.390;34.904;2023-04-25T08:02:40;8.32;;;1.42;;
70744;SDS011;59284;31.390;34.904;2023-04-25T08:05:05;8.15;;;1.63;;
70744;SDS011;59284;31.390;34.904;2023-04-25T08:07:33;7.20;;;1.50;;
70744;SDS011;59284;31.390;34.904;2023-04-25T08:10:00;8.23;;;1.60;;
70744;SDS011;59284;31.390;34.904;2023-04-25T08:12:25;5.20;;;1.60;;
70744;SDS011;59284;31.390;34.904;2023-04-25T08:14:51;6.00;;;1.30;;
70744;SDS011;59284;31.390;34.904;2023-04-25T08:17:16;4.70;;;1.23;;
70744;SDS011;59284;31.390;34.904;2023-04-25T08:19:42;7.63;;;1.80;;
70744;SDS011;59284;31.390;34.904;2023-04-25T08:22:08;5.07;;;1.60;;
70744;SDS011;59284;31.390;34.904;2023-04-25T08:24:34;6.57;;;1.50;;
70744;SDS011;59284;31.390;34.904;2023-04-25T08:26:59;6.65;;;1.33;;
70744;SDS011;59284;31.390;34.904;2023-04-25T08:29:25;7.13;;;1.73;;
70744;SDS011;59284;31.390;34.904;2023-04-25T08:31:51;3.38;;;1.25;;
70744;SDS011;59284;31.390;34.904;2023-04-25T08:34:18;4.25;;;1.20;;
70744;SDS011;59284;31.390;34.904;2023-04-25T08:36:45;7.32;;;1.77;;
70744;SDS011;59284;31.390;34.904;2023-04-25T08:39:10;8.30;;;1.70;;
70744;SDS011;59284;31.390;34.904;2023-04-25T08:41:36;4.10;;;1.50;;
70744;SDS011;59284;31.390;34.904;2023-04-25T08:44:02;8.18;;;1.70;;
70744;SDS011;59284;31.390;34.904;2023-04-25T08:46:29;4.65;;;1.70;;
70744;SDS011;59284;31.390;34.904;2023-04-25T08:48:57;4.90;;;1.50;;
70744;SDS011;59284;31.390;34.904;2023-04-25T08:51:26;4.30;;;1.40;;
70744;SDS011;59284;31.390;34.904;2023-04-25T08:53:53;6.13;;;1.33;;
70744;SDS011;59284;31.390;34.904;2023-04-25T08:56:18;5.15;;;1.65;;
70744;SDS011;59284;31.390;34.904;2023-04-25T08:58:50;3.70;;;1.48;;
70744;SDS011;59284;31.390;34.904;2023-04-25T09:01:16;4.60;;;1.50;;
70744;SDS011;59284;31.390;34.904;2023-04-25T09:03:43;7.93;;;1.80;;
70744;SDS011;59284;31.390;34.904;2023-04-25T09:06:10;4.72;;;1.55;;
70744;SDS011;59284;31.390;34.904;2023-04-25T09:08:36;7.57;;;1.73;;
70744;SDS011;59284;31.390;34.904;2023-04-25T09:11:02;7.25;;;1.92;;
70744;SDS011;59284;31.390;34.904;2023-04-25T09:13:28;6.77;;;1.90;;
70744;SDS011;59284;31.390;34.904;2023-04-25T09:15:55;4.55;;;1.20;;
70744;SDS011;59284;31.390;34.904;2023-04-25T09:18:22;8.85;;;2.13;;
70744;SDS011;59284;31.390;34.904;2023-04-25T09:20:55;5.22;;;1.70;;
70744;SDS011;59284;31.390;34.904;2023-04-25T09:23:22;8.93;;;1.80;;
70744;SDS011;59284;31.390;34.904;2023-04-25T09:25:51;4.50;;;1.52;;
70744;SDS011;59284;31.390;34.904;2023-04-25T09:28:25;3.97;;;1.70;;
70744;SDS011;59284;31.390;34.904;2023-04-25T09:30:56;8.68;;;1.90;;
70744;SDS011;59284;31.390;34.904;2023-04-25T09:33:31;7.85;;;2.08;;
70744;SDS011;59284;31.390;34.904;2023-04-25T09:36:04;3.13;;;1.60;;
70744;SDS011;59284;31.390;34.904;2023-04-25T09:38:32;9.50;;;1.77;;
70744;SDS011;59284;31.390;34.904;2023-04-25T09:41:06;4.95;;;1.30;;
70744;SDS011;59284;31.390;34.904;2023-04-25T09:43:32;7.35;;;1.30;;
70744;SDS011;59284;31.390;34.904;2023-04-25T09:45:58;3.63;;;1.20;;
70744;SDS011;59284;31.390;34.904;2023-04-25T09:48:26;3.80;;;1.38;;
70744;SDS011;59284;31.390;34.904;2023-04-25T09:51:11;4.18;;;1.45;;
70744;SDS011;59284;31.390;34.904;2023-04-25T09:53:45;7.85;;;1.60;;
70744;SDS011;59284;31.390;34.904;2023-04-25T09:56:12;6.73;;;1.23;;
70744;SDS011;59284;31.390;34.904;2023-04-25T09:58:41;4.03;;;1.02;;
70744;SDS011;59284;31.390;34.904;2023-04-25T10:01:08;4.78;;;1.35;;
70744;SDS011;59284;31.390;34.904;2023-04-25T10:03:35;4.47;;;1.33;;
70744;SDS011;59284;31.390;34.904;2023-04-25T10:06:03;6.45;;;1.40;;
70744;SDS011;59284;31.390;34.904;2023-04-25T10:08:31;4.33;;;1.17;;
70744;SDS011;59284;31.390;34.904;2023-04-25T10:11:06;7.03;;;1.40;;
70744;SDS011;59284;31.390;34.904;2023-04-25T10:13:33;4.05;;;1.30;;
70744;SDS011;59284;31.390;34.904;2023-04-25T10:16:00;2.90;;;1.15;;
70744;SDS011;59284;31.390;34.904;2023-04-25T10:18:27;4.05;;;1.35;;
70744;SDS011;59284;31.390;34.904;2023-04-25T10:21:00;2.50;;;0.90;;
70744;SDS011;59284;31.390;34.904;2023-04-25T10:23:27;3.17;;;0.98;;
70744;SDS011;59284;31.390;34.904;2023-04-25T10:25:54;6.10;;;1.25;;
70744;SDS011;59284;31.390;34.904;2023-04-25T10:28:20;3.10;;;1.10;;
70744;SDS011;59284;31.390;34.904;2023-04-25T10:30:59;2.50;;;1.03;;
70744;SDS011;59284;31.390;34.904;2023-04-25T10:33:34;4.22;;;1.20;;
70744;SDS011;59284;31.390;34.904;2023-04-25T10:36:15;5.13;;;0.90;;
70744;SDS011;59284;31.390;34.904;2023-04-25T10:38:43;4.00;;;1.10;;
70744;SDS011;59284;31.390;34.904;2023-04-25T10:41:10;4.43;;;1.20;;
70744;SDS011;59284;31.390;34.904;2023-04-25T10:43:40;2.87;;;1.00;;
70744;SDS011;59284;31.390;34.904;2023-04-25T10:46:14;6.35;;;1.20;;
70744;SDS011;59284;31.390;34.904;2023-04-25T10:48:51;4.32;;;1.10;;
70744;SDS011;59284;31.390;34.904;2023-04-25T10:51:19;4.05;;;1.10;;
70744;SDS011;59284;31.390;34.904;2023-04-25T10:53:46;4.32;;;1.50;;
70744;SDS011;59284;31.390;34.904;2023-04-25T10:59:10;4.20;;;1.00;;
70744;SDS011;59284;31.390;34.904;2023-04-25T11:01:37;3.85;;;0.90;;
70744;SDS011;59284;31.390;34.904;2023-04-25T11:09:33;3.77;;;1.13;;
70744;SDS011;59284;31.390;34.904;2023-04-25T11:11:59;3.17;;;1.27;;
70744;SDS011;59284;31.390;34.904;2023-04-25T11:14:26;3.90;;;1.30;;
70744;SDS011;59284;31.390;34.904;2023-04-25T11:16:52;4.88;;;1.20;;
70744;SDS011;59284;31.390;34.904;2023-04-25T11:19:22;5.30;;;1.55;;
70744;SDS011;59284;31.390;34.904;2023-04-25T11:21:48;8.23;;;1.50;;
70744;SDS011;59284;31.390;34.904;2023-04-25T11:24:13;4.65;;;1.42;;
70744;SDS011;59284;31.390;34.904;2023-04-25T11:26:43;6.60;;;1.33;;
70744;SDS011;59284;31.390;34.904;2023-04-25T11:29:09;5.55;;;1.40;;
70744;SDS011;59284;31.390;34.904;2023-04-25T11:31:34;4.47;;;1.17;;
70744;SDS011;59284;31.390;34.904;2023-04-25T11:34:00;5.77;;;1.00;;
70744;SDS011;59284;31.390;34.904;2023-04-25T11:36:26;4.82;;;1.30;;
70744;SDS011;59284;31.390;34.904;2023-04-25T11:38:53;8.20;;;1.60;;
70744;SDS011;59284;31.390;34.904;2023-04-25T11:41:21;5.70;;;1.80;;
70744;SDS011;59284;31.390;34.904;2023-04-25T11:43:49;3.73;;;1.50;;
70744;SDS011;59284;31.390;34.904;2023-04-25T11:46:16;4.57;;;1.73;;
70744;SDS011;59284;31.390;34.904;2023-04-25T11:48:42;4.03;;;1.40;;
70744;SDS011;59284;31.390;34.904;2023-04-25T11:51:08;4.07;;;1.30;;
70744;SDS011;59284;31.390;34.904;2023-04-25T11:53:34;4.15;;;1.40;;
70744;SDS011;59284;31.390;34.904;2023-04-25T11:56:00;7.20;;;1.77;;
70744;SDS011;59284;31.390;34.904;2023-04-25T11:58:27;6.57;;;1.27;;
70744;SDS011;59284;31.390;34.904;2023-04-25T12:00:53;5.97;;;1.80;;
70744;SDS011;59284;31.390;34.904;2023-04-25T12:03:19;4.55;;;1.45;;
70744;SDS011;59284;31.390;34.904;2023-04-25T12:05:45;4.47;;;1.63;;
70744;SDS011;59284;31.390;34.904;2023-04-25T12:10:41;9.52;;;2.60;;
70744;SDS011;59284;31.390;34.904;2023-04-25T12:13:17;7.57;;;2.90;;
70744;SDS011;59284;31.390;34.904;2023-04-25T12:15:43;8.80;;;3.33;;
70744;SDS011;59284;31.390;34.904;2023-04-25T12:18:09;5.75;;;2.70;;
70744;SDS011;59284;31.390;34.904;2023-04-25T12:20:35;7.90;;;3.90;;
70744;SDS011;59284;31.390;34.904;2023-04-25T12:23:01;6.93;;;3.65;;
70744;SDS011;59284;31.390;34.904;2023-04-25T12:25:37;8.68;;;3.70;;
70744;SDS011;59284;31.390;34.904;2023-04-25T12:28:17;7.57;;;3.58;;
70744;SDS011;59284;31.390;34.904;2023-04-25T12:31:01;9.20;;;4.47;;
70744;SDS011;59284;31.390;34.904;2023-04-25T12:33:31;7.47;;;4.13;;
70744;SDS011;59284;31.390;34.904;2023-04-25T12:36:02;8.48;;;4.05;;
70744;SDS011;59284;31.390;34.904;2023-04-25T12:38:36;9.63;;;4.63;;
70744;SDS011;59284;31.390;34.904;2023-04-25T12:41:06;9.00;;;4.13;;
70744;SDS011;59284;31.390;34.904;2023-04-25T12:43:32;10.67;;;4.33;;
70744;SDS011;59284;31.390;34.904;2023-04-25T12:45:58;11.07;;;5.30;;
70744;SDS011;59284;31.390;34.904;2023-04-25T12:48:23;12.70;;;4.83;;
70744;SDS011;59284;31.390;34.904;2023-04-25T12:50:49;9.53;;;4.47;;
70744;SDS011;59284;31.390;34.904;2023-04-25T12:53:20;8.20;;;4.82;;
70744;SDS011;59284;31.390;34.904;2023-04-25T12:55:46;6.03;;;3.95;;
70744;SDS011;59284;31.390;34.904;2023-04-25T12:58:12;9.27;;;4.70;;
70744;SDS011;59284;31.390;34.904;2023-04-25T13:00:39;9.27;;;4.85;;
70744;SDS011;59284;31.390;34.904;2023-04-25T13:03:04;7.22;;;3.60;;
70744;SDS011;59284;31.390;34.904;2023-04-25T13:05:30;14.20;;;4.67;;
70744;SDS011;59284;31.390;34.904;2023-04-25T13:07:56;14.32;;;5.90;;
70744;SDS011;59284;31.390;34.904;2023-04-25T13:10:22;10.82;;;4.07;;
70744;SDS011;59284;31.390;34.904;2023-04-25T13:12:47;9.33;;;4.03;;
70744;SDS011;59284;31.390;34.904;2023-04-25T13:15:13;7.55;;;3.92;;
70744;SDS011;59284;31.390;34.904;2023-04-25T13:17:41;6.50;;;3.95;;
70744;SDS011;59284;31.390;34.904;2023-04-25T13:20:07;8.17;;;4.40;;
70744;SDS011;59284;31.390;34.904;2023-04-25T13:22:34;12.10;;;5.32;;
70744;SDS011;59284;31.390;34.904;2023-04-25T13:25:04;8.80;;;3.90;;
70744;SDS011;59284;31.390;34.904;2023-04-25T13:27:30;9.88;;;4.57;;
70744;SDS011;59284;31.390;34.904;2023-04-25T13:29:58;10.95;;;4.20;;
70744;SDS011;59284;31.390;34.904;2023-04-25T13:32:23;8.60;;;5.13;;
70744;SDS011;59284;31.390;34.904;2023-04-25T13:34:50;10.77;;;4.43;;
70744;SDS011;59284;31.390;34.904;2023-04-25T13:37:16;10.35;;;4.30;;
70744;SDS011;59284;31.390;34.904;2023-04-25T13:39:42;8.03;;;4.00;;
70744;SDS011;59284;31.390;34.904;2023-04-25T13:42:07;6.93;;;3.97;;
70744;SDS011;59284;31.390;34.904;2023-04-25T13:44:33;9.90;;;3.93;;
70744;SDS011;59284;31.390;34.904;2023-04-25T13:46:58;11.63;;;4.32;;
70744;SDS011;59284;31.390;34.904;2023-04-25T13:49:25;10.57;;;4.40;;
70744;SDS011;59284;31.390;34.904;2023-04-25T13:51:51;13.88;;;4.95;;
70744;SDS011;59284;31.390;34.904;2023-04-25T13:54:17;9.88;;;4.20;;
70744;SDS011;59284;31.390;34.904;2023-04-25T13:56:42;9.73;;;4.57;;
70744;SDS011;59284;31.390;34.904;2023-04-25T13:59:08;8.98;;;4.40;;
70744;SDS011;59284;31.390;34.904;2023-04-25T14:01:34;6.07;;;2.80;;
70744;SDS011;59284;31.390;34.904;2023-04-25T14:04:01;7.75;;;3.80;;
70744;SDS011;59284;31.390;34.904;2023-04-25T14:06:28;6.55;;;3.03;;
70744;SDS011;59284;31.390;34.904;2023-04-25T14:08:54;10.83;;;4.30;;
70744;SDS011;59284;31.390;34.904;2023-04-25T14:11:21;8.63;;;3.53;;
70744;SDS011;59284;31.390;34.904;2023-04-25T14:13:47;8.93;;;3.57;;
70744;SDS011;59284;31.390;34.904;2023-04-25T14:16:14;7.28;;;3.85;;
70744;SDS011;59284;31.390;34.904;2023-04-25T14:18:40;10.43;;;3.63;;
70744;SDS011;59284;31.390;34.904;2023-04-25T14:21:06;7.20;;;2.73;;
70744;SDS011;59284;31.390;34.904;2023-04-25T14:23:32;7.63;;;3.42;;
70744;SDS011;59284;31.390;34.904;2023-04-25T14:25:57;7.77;;;3.20;;
70744;SDS011;59284;31.390;34.904;2023-04-25T14:28:23;5.68;;;2.55;;
70744;SDS011;59284;31.390;34.904;2023-04-25T14:30:48;6.17;;;2.43;;
70744;SDS011;59284;31.390;34.904;2023-04-25T14:33:14;7.63;;;2.20;;
70744;SDS011;59284;31.390;34.904;2023-04-25T14:35:39;12.45;;;3.30;;
70744;SDS011;59284;31.390;34.904;2023-04-25T14:38:05;6.30;;;2.97;;
70744;SDS011;59284;31.390;34.904;2023-04-25T14:40:31;10.55;;;3.60;;